sensor_id;sensor_type;location;lat;lon;timestamp;temperature;humidity
14397;DHT22;50653;47.810;13.022;2023-05-16T00:00:11;12.60;99.90
14397;DHT22;50653;47.810;13.022;2023-05-16T00:02:37;12.40;99.90
14397;DHT22;50653;47.810;13.022;2023-05-16T00:05:04;12.60;99.90
14397;DHT22;50653;47.810;13.022;2023-05-16T00:07:32;12.70;99.90
14397;DHT22;50653;47.810;13.022;2023-05-16T00:09:58;12.80;99.90
14397;DHT22;50653;47.810;13.022;2023-05-16T00:12:24;12.80;99.90
14397;DHT22;50653;47.810;13.022;2023-05-16T00:14:50;12.50;99.90
14397;DHT22;50653;47.810;13.022;2023-05-16T00:17:17;12.30;99.90
14397;DHT22;50653;47.810;13.022;2023-05-16T00:19:45;12.10;99.90
14397;DHT22;50653;47.810;13.022;2023-05-16T00:22:14;12.10;99.90
14397;DHT22;50653;47.810;13.022;2023-05-16T00:24:40;12.20;99.90
14397;DHT22;50653;47.810;13.022;2023-05-16T00:27:06;12.20;99.90
14397;DHT22;50653;47.810;13.022;2023-05-16T00:29:31;12.50;99.90
14397;DHT22;50653;47.810;13.022;2023-05-16T00:31:57;12.70;99.90
14397;DHT22;50653;47.810;13.022;2023-05-16T00:34:23;12.70;99.90
14397;DHT22;50653;47.810;13.022;2023-05-16T00:36:51;12.70;99.90
14397;DHT22;50653;47.810;13.022;2023-05-16T00:39:17;12.70;99.90
14397;DHT22;50653;47.810;13.022;2023-05-16T00:41:43;12.60;99.90
14397;DHT22;50653;47.810;13.022;2023-05-16T00:44:09;12.60;99.90
14397;DHT22;50653;47.810;13.022;2023-05-16T00:46:35;12.40;99.90
14397;DHT22;50653;47.810;13.022;2023-05-16T00:49:00;12.30;99.90
14397;DHT22;50653;47.810;13.022;2023-05-16T00:51:27;12.30;99.90
14397;DHT22;50653;47.810;13.022;2023-05-16T00:53:54;12.40;99.90
14397;DHT22;50653;47.810;13.022;2023-05-16T00:56:21;12.50;99.90
14397;DHT22;50653;47.810;13.022;2023-05-16T00:58:48;12.60;99.90
14397;DHT22;50653;47.810;13.022;2023-05-16T01:01:15;12.50;99.90
14397;DHT22;50653;47.810;13.022;2023-05-16T01:03:41;12.20;99.90
14397;DHT22;50653;47.810;13.022;2023-05-16T01:06:10;12.20;99.90
14397;DHT22;50653;47.810;13.022;2023-05-16T01:08:37;12.30;99.90
14397;DHT22;50653;47.810;13.022;2023-05-16T01:14:21;12.40;99.90
14397;DHT22;50653;47.810;13.022;2023-05-16T01:17:15;12.30;99.90
14397;DHT22;50653;47.810;13.022;2023-05-16T01:19:59;12.30;99.90
14397;DHT22;50653;47.810;13.022;2023-05-16T01:22:35;12.30;99.90
14397;DHT22;50653;47.810;13.022;2023-05-16T01:27:49;12.50;99.90
14397;DHT22;50653;47.810;13.022;2023-05-16T01:30:18;12.50;99.90
14397;DHT22;50653;47.810;13.022;2023-05-16T01:32:44;12.50;99.90
14397;DHT22;50653;47.810;13.022;2023-05-16T01:35:13;12.40;99.90
14397;DHT22;50653;47.810;13.022;2023-05-16T01:37:48;12.50;99.90
14397;DHT22;50653;47.810;13.022;2023-05-16T01:40:35;12.40;99.90
14397;DHT22;50653;47.810;13.022;2023-05-16T01:43:10;12.50;99.90
14397;DHT22;50653;47.810;13.022;2023-05-16T01:45:40;12.40;99.90
14397;DHT22;50653;47.810;13.022;2023-05-16T01:48:21;12.50;99.90
14397;DHT22;50653;47.810;13.022;2023-05-16T01:50:51;12.50;99.90
14397;DHT22;50653;47.810;13.022;2023-05-16T01:53:24;12.50;99.90
14397;DHT22;50653;47.810;13.022;2023-05-16T01:55:51;12.50;99.90
14397;DHT22;50653;47.810;13.022;2023-05-16T01:58:20;12.60;99.90
14397;DHT22;50653;47.810;13.022;2023-05-16T02:00:47;12.60;99.90
14397;DHT22;50653;47.810;13.022;2023-05-16T02:03:12;12.40;99.90
14397;DHT22;50653;47.810;13.022;2023-05-16T02:05:38;12.20;99.90
14397;DHT22;50653;47.810;13.022;2023-05-16T02:08:04;12.30;99.90
14397;DHT22;50653;47.810;13.022;2023-05-16T02:10:30;12.40;99.90
14397;DHT22;50653;47.810;13.022;2023-05-16T02:12:58;12.40;99.90
14397;DHT22;50653;47.810;13.022;2023-05-16T02:15:24;12.40;99.90
14397;DHT22;50653;47.810;13.022;2023-05-16T02:17:49;12.30;99.90
14397;DHT22;50653;47.810;13.022;2023-05-16T02:20:15;12.40;99.90
14397;DHT22;50653;47.810;13.022;2023-05-16T02:22:41;12.50;99.90
14397;DHT22;50653;47.810;13.022;2023-05-16T02:25:09;12.50;99.90
14397;DHT22;50653;47.810;13.022;2023-05-16T02:27:34;12.50;99.90
14397;DHT22;50653;47.810;13.022;2023-05-16T02:30:01;12.50;99.90
14397;DHT22;50653;47.810;13.022;2023-05-16T02:32:26;12.30;99.90
14397;DHT22;50653;47.810;13.022;2023-05-16T02:34:52;12.20;99.90
14397;DHT22;50653;47.810;13.022;2023-05-16T02:37:18;12.30;99.90
14397;DHT22;50653;47.810;13.022;2023-05-16T02:39:43;12.40;99.90
14397;DHT22;50653;47.810;13.022;2023-05-16T02:42:09;12.50;99.90
14397;DHT22;50653;47.810;13.022;2023-05-16T02:44:34;12.50;99.90
14397;DHT22;50653;47.810;13.022;2023-05-16T02:47:00;12.40;99.90
14397;DHT22;50653;47.810;13.022;2023-05-16T02:49:26;12.40;99.90
14397;DHT22;50653;47.810;13.022;2023-05-16T02:51:51;12.40;99.90
14397;DHT22;50653;47.810;13.022;2023-05-16T02:54:17;12.40;99.90
14397;DHT22;50653;47.810;13.022;2023-05-16T02:56:43;12.40;99.90
14397;DHT22;50653;47.810;13.022;2023-05-16T02:59:10;12.30;99.90
14397;DHT22;50653;47.810;13.022;2023-05-16T03:01:35;12.10;99.90
14397;DHT22;50653;47.810;13.022;2023-05-16T03:04:01;12.10;99.90
14397;DHT22;50653;47.810;13.022;2023-05-16T03:06:29;12.30;99.90
14397;DHT22;50653;47.810;13.022;2023-05-16T03:08:55;12.20;99.90
14397;DHT22;50653;47.810;13.022;2023-05-16T03:11:20;12.30;99.90
14397;DHT22;50653;47.810;13.022;2023-05-16T03:13:49;12.30;99.90
14397;DHT22;50653;47.810;13.022;2023-05-16T03:16:15;12.10;99.90
14397;DHT22;50653;47.810;13.022;2023-05-16T03:18:41;12.10;99.90
14397;DHT22;50653;47.810;13.022;2023-05-16T03:21:07;12.10;99.90
14397;DHT22;50653;47.810;13.022;2023-05-16T03:23:33;12.20;99.90
14397;DHT22;50653;47.810;13.022;2023-05-16T03:25:59;12.10;99.90
14397;DHT22;50653;47.810;13.022;2023-05-16T03:28:25;12.10;99.90
14397;DHT22;50653;47.810;13.022;2023-05-16T03:30:53;12.20;99.90
14397;DHT22;50653;47.810;13.022;2023-05-16T03:33:19;12.00;99.90
14397;DHT22;50653;47.810;13.022;2023-05-16T03:35:45;11.70;99.90
14397;DHT22;50653;47.810;13.022;2023-05-16T03:38:11;12.00;99.90
14397;DHT22;50653;47.810;13.022;2023-05-16T03:40:38;11.90;99.90
14397;DHT22;50653;47.810;13.022;2023-05-16T03:43:03;12.00;99.90
14397;DHT22;50653;47.810;13.022;2023-05-16T03:45:30;12.10;99.90
14397;DHT22;50653;47.810;13.022;2023-05-16T03:47:56;12.20;99.90
14397;DHT22;50653;47.810;13.022;2023-05-16T03:50:22;12.30;99.90
14397;DHT22;50653;47.810;13.022;2023-05-16T03:52:47;12.30;99.90
14397;DHT22;50653;47.810;13.022;2023-05-16T03:55:13;12.20;99.90
14397;DHT22;50653;47.810;13.022;2023-05-16T03:57:40;12.20;99.90
14397;DHT22;50653;47.810;13.022;2023-05-16T04:00:10;11.90;99.90
14397;DHT22;50653;47.810;13.022;2023-05-16T04:02:39;12.10;99.90
14397;DHT22;50653;47.810;13.022;2023-05-16T04:05:09;12.10;99.90
14397;DHT22;50653;47.810;13.022;2023-05-16T04:07:39;12.00;99.90
14397;DHT22;50653;47.810;13.022;2023-05-16T04:10:05;11.80;99.90
14397;DHT22;50653;47.810;13.022;2023-05-16T04:12:31;11.70;99.90
14397;DHT22;50653;47.810;13.022;2023-05-16T04:14:57;11.90;99.90
14397;DHT22;50653;47.810;13.022;2023-05-16T04:17:22;12.00;99.90
14397;DHT22;50653;47.810;13.022;2023-05-16T04:19:48;12.10;99.90
14397;DHT22;50653;47.810;13.022;2023-05-16T04:22:14;12.00;99.90
14397;DHT22;50653;47.810;13.022;2023-05-16T04:24:40;12.10;99.90
14397;DHT22;50653;47.810;13.022;2023-05-16T04:27:06;12.10;99.90
14397;DHT22;50653;47.810;13.022;2023-05-16T04:29:35;12.10;99.90
14397;DHT22;50653;47.810;13.022;2023-05-16T04:32:00;12.20;99.90
14397;DHT22;50653;47.810;13.022;2023-05-16T04:34:26;12.20;99.90
14397;DHT22;50653;47.810;13.022;2023-05-16T04:36:53;12.10;99.90
14397;DHT22;50653;47.810;13.022;2023-05-16T04:39:19;12.10;99.90
14397;DHT22;50653;47.810;13.022;2023-05-16T04:41:44;12.10;99.90
14397;DHT22;50653;47.810;13.022;2023-05-16T04:44:10;12.10;99.90
14397;DHT22;50653;47.810;13.022;2023-05-16T04:46:36;11.90;99.90
14397;DHT22;50653;47.810;13.022;2023-05-16T04:49:02;11.90;99.90
14397;DHT22;50653;47.810;13.022;2023-05-16T04:51:27;11.90;99.90
14397;DHT22;50653;47.810;13.022;2023-05-16T04:53:53;11.90;99.90
14397;DHT22;50653;47.810;13.022;2023-05-16T04:56:19;12.10;99.90
14397;DHT22;50653;47.810;13.022;2023-05-16T04:58:45;12.20;99.90
14397;DHT22;50653;47.810;13.022;2023-05-16T05:01:11;12.30;99.90
14397;DHT22;50653;47.810;13.022;2023-05-16T05:03:37;12.20;99.90
14397;DHT22;50653;47.810;13.022;2023-05-16T05:06:02;12.30;99.90
14397;DHT22;50653;47.810;13.022;2023-05-16T05:08:28;12.30;99.90
14397;DHT22;50653;47.810;13.022;2023-05-16T05:10:55;12.30;99.90
14397;DHT22;50653;47.810;13.022;2023-05-16T05:13:21;12.10;99.90
14397;DHT22;50653;47.810;13.022;2023-05-16T05:15:46;12.30;99.90
14397;DHT22;50653;47.810;13.022;2023-05-16T05:18:14;12.30;99.90
14397;DHT22;50653;47.810;13.022;2023-05-16T05:20:40;12.40;99.90
14397;DHT22;50653;47.810;13.022;2023-05-16T05:23:06;12.40;99.90
14397;DHT22;50653;47.810;13.022;2023-05-16T05:25:34;12.40;99.90
14397;DHT22;50653;47.810;13.022;2023-05-16T05:28:00;12.40;99.90
14397;DHT22;50653;47.810;13.022;2023-05-16T05:30:26;12.50;99.90
14397;DHT22;50653;47.810;13.022;2023-05-16T05:32:51;12.50;99.90
14397;DHT22;50653;47.810;13.022;2023-05-16T05:35:19;12.40;99.90
14397;DHT22;50653;47.810;13.022;2023-05-16T05:37:45;12.50;99.90
14397;DHT22;50653;47.810;13.022;2023-05-16T05:40:11;12.50;99.90
14397;DHT22;50653;47.810;13.022;2023-05-16T05:42:36;12.60;99.90
14397;DHT22;50653;47.810;13.022;2023-05-16T05:45:02;12.60;99.90
14397;DHT22;50653;47.810;13.022;2023-05-16T05:47:28;12.70;99.90
14397;DHT22;50653;47.810;13.022;2023-05-16T05:49:54;12.70;99.90
14397;DHT22;50653;47.810;13.022;2023-05-16T05:52:20;12.70;99.90
14397;DHT22;50653;47.810;13.022;2023-05-16T05:54:47;12.70;99.90
14397;DHT22;50653;47.810;13.022;2023-05-16T05:57:12;12.70;99.90
14397;DHT22;50653;47.810;13.022;2023-05-16T05:59:38;12.80;99.90
14397;DHT22;50653;47.810;13.022;2023-05-16T06:02:04;12.80;99.90
14397;DHT22;50653;47.810;13.022;2023-05-16T06:04:30;12.80;99.90
14397;DHT22;50653;47.810;13.022;2023-05-16T06:06:55;12.70;99.90
14397;DHT22;50653;47.810;13.022;2023-05-16T06:09:21;12.70;99.90
14397;DHT22;50653;47.810;13.022;2023-05-16T06:11:47;12.70;99.90
14397;DHT22;50653;47.810;13.022;2023-05-16T06:14:13;12.80;99.90
14397;DHT22;50653;47.810;13.022;2023-05-16T06:16:40;12.60;99.90
14397;DHT22;50653;47.810;13.022;2023-05-16T06:19:06;12.70;99.90
14397;DHT22;50653;47.810;13.022;2023-05-16T06:21:32;12.80;99.90
14397;DHT22;50653;47.810;13.022;2023-05-16T06:23:58;12.80;99.90
14397;DHT22;50653;47.810;13.022;2023-05-16T06:26:23;12.90;99.90
14397;DHT22;50653;47.810;13.022;2023-05-16T06:28:49;12.90;99.90
14397;DHT22;50653;47.810;13.022;2023-05-16T06:31:15;12.90;99.90
14397;DHT22;50653;47.810;13.022;2023-05-16T06:33:40;12.60;99.90
14397;DHT22;50653;47.810;13.022;2023-05-16T06:36:06;12.70;99.90
14397;DHT22;50653;47.810;13.022;2023-05-16T06:38:32;12.60;99.90
14397;DHT22;50653;47.810;13.022;2023-05-16T06:40:58;12.60;99.90
14397;DHT22;50653;47.810;13.022;2023-05-16T06:43:23;12.70;99.90
14397;DHT22;50653;47.810;13.022;2023-05-16T06:45:49;12.80;99.90
14397;DHT22;50653;47.810;13.022;2023-05-16T06:48:17;12.90;99.90
14397;DHT22;50653;47.810;13.022;2023-05-16T06:50:47;12.90;99.90
14397;DHT22;50653;47.810;13.022;2023-05-16T06:53:12;12.90;99.90
14397;DHT22;50653;47.810;13.022;2023-05-16T06:55:38;12.80;99.90
14397;DHT22;50653;47.810;13.022;2023-05-16T06:58:04;12.90;99.90
14397;DHT22;50653;47.810;13.022;2023-05-16T07:00:29;12.80;99.90
14397;DHT22;50653;47.810;13.022;2023-05-16T07:02:55;12.90;99.90
14397;DHT22;50653;47.810;13.022;2023-05-16T07:05:20;13.00;99.90
14397;DHT22;50653;47.810;13.022;2023-05-16T07:07:46;13.00;99.90
14397;DHT22;50653;47.810;13.022;2023-05-16T07:10:14;13.10;99.90
14397;DHT22;50653;47.810;13.022;2023-05-16T07:12:43;13.00;99.90
14397;DHT22;50653;47.810;13.022;2023-05-16T07:15:09;12.90;99.90
14397;DHT22;50653;47.810;13.022;2023-05-16T07:17:35;12.90;99.90
14397;DHT22;50653;47.810;13.022;2023-05-16T07:20:01;13.10;99.90
14397;DHT22;50653;47.810;13.022;2023-05-16T07:22:26;13.00;99.90
14397;DHT22;50653;47.810;13.022;2023-05-16T07:24:52;13.10;99.90
14397;DHT22;50653;47.810;13.022;2023-05-16T07:27:21;13.20;99.90
14397;DHT22;50653;47.810;13.022;2023-05-16T07:29:47;13.20;99.90
14397;DHT22;50653;47.810;13.022;2023-05-16T07:32:13;13.20;99.90
14397;DHT22;50653;47.810;13.022;2023-05-16T07:34:38;13.20;99.90
14397;DHT22;50653;47.810;13.022;2023-05-16T07:37:04;13.20;99.90
14397;DHT22;50653;47.810;13.022;2023-05-16T07:39:32;13.30;99.90
14397;DHT22;50653;47.810;13.022;2023-05-16T07:41:57;13.40;99.90
14397;DHT22;50653;47.810;13.022;2023-05-16T07:44:23;13.50;99.90
14397;DHT22;50653;47.810;13.022;2023-05-16T07:46:48;13.50;99.90
14397;DHT22;50653;47.810;13.022;2023-05-16T07:49:15;13.60;99.90
14397;DHT22;50653;47.810;13.022;2023-05-16T07:51:40;13.60;99.90
14397;DHT22;50653;47.810;13.022;2023-05-16T07:54:06;13.60;99.90
14397;DHT22;50653;47.810;13.022;2023-05-16T07:56:31;13.60;99.90
14397;DHT22;50653;47.810;13.022;2023-05-16T07:58:58;13.60;99.90
14397;DHT22;50653;47.810;13.022;2023-05-16T08:01:24;13.60;99.90
14397;DHT22;50653;47.810;13.022;2023-05-16T08:03:49;13.60;99.90
14397;DHT22;50653;47.810;13.022;2023-05-16T08:06:16;13.70;99.90
14397;DHT22;50653;47.810;13.022;2023-05-16T08:08:41;13.70;99.90
14397;DHT22;50653;47.810;13.022;2023-05-16T08:11:07;13.80;99.90
14397;DHT22;50653;47.810;13.022;2023-05-16T08:13:33;13.80;99.90
14397;DHT22;50653;47.810;13.022;2023-05-16T08:15:58;13.80;99.90
14397;DHT22;50653;47.810;13.022;2023-05-16T08:18:24;13.80;99.90
14397;DHT22;50653;47.810;13.022;2023-05-16T08:20:50;13.80;99.90
14397;DHT22;50653;47.810;13.022;2023-05-16T08:23:15;13.70;99.90
14397;DHT22;50653;47.810;13.022;2023-05-16T08:25:41;13.80;99.90
14397;DHT22;50653;47.810;13.022;2023-05-16T08:28:07;13.80;99.90
14397;DHT22;50653;47.810;13.022;2023-05-16T08:30:32;13.80;99.90
14397;DHT22;50653;47.810;13.022;2023-05-16T08:32:58;13.70;99.90
14397;DHT22;50653;47.810;13.022;2023-05-16T08:35:24;13.80;99.90
14397;DHT22;50653;47.810;13.022;2023-05-16T08:37:49;13.80;99.90
14397;DHT22;50653;47.810;13.022;2023-05-16T08:40:16;13.90;99.90
14397;DHT22;50653;47.810;13.022;2023-05-16T08:42:43;13.90;99.90
14397;DHT22;50653;47.810;13.022;2023-05-16T08:45:09;13.80;99.90
14397;DHT22;50653;47.810;13.022;2023-05-16T08:47:38;13.90;99.90
14397;DHT22;50653;47.810;13.022;2023-05-16T08:50:08;13.90;99.90
14397;DHT22;50653;47.810;13.022;2023-05-16T08:52:36;13.90;99.90
14397;DHT22;50653;47.810;13.022;2023-05-16T08:55:03;13.90;99.90
14397;DHT22;50653;47.810;13.022;2023-05-16T08:57:36;14.00;99.90
14397;DHT22;50653;47.810;13.022;2023-05-16T09:00:02;14.00;99.90
14397;DHT22;50653;47.810;13.022;2023-05-16T09:02:38;14.10;99.90
14397;DHT22;50653;47.810;13.022;2023-05-16T09:05:04;14.10;99.90
14397;DHT22;50653;47.810;13.022;2023-05-16T09:07:30;14.00;99.90
14397;DHT22;50653;47.810;13.022;2023-05-16T09:09:55;14.10;99.90
14397;DHT22;50653;47.810;13.022;2023-05-16T09:12:21;14.10;99.90
14397;DHT22;50653;47.810;13.022;2023-05-16T09:14:47;14.10;99.90
14397;DHT22;50653;47.810;13.022;2023-05-16T09:17:13;14.00;99.90
14397;DHT22;50653;47.810;13.022;2023-05-16T09:19:43;14.00;99.90
14397;DHT22;50653;47.810;13.022;2023-05-16T09:22:13;14.00;99.90
14397;DHT22;50653;47.810;13.022;2023-05-16T09:24:43;14.00;99.90
14397;DHT22;50653;47.810;13.022;2023-05-16T09:27:13;14.00;99.90
14397;DHT22;50653;47.810;13.022;2023-05-16T09:29:44;13.90;99.90
14397;DHT22;50653;47.810;13.022;2023-05-16T09:34:53;14.00;99.90
14397;DHT22;50653;47.810;13.022;2023-05-16T09:37:23;14.00;99.90
14397;DHT22;50653;47.810;13.022;2023-05-16T09:39:50;14.10;99.90
14397;DHT22;50653;47.810;13.022;2023-05-16T09:42:18;14.00;99.90
14397;DHT22;50653;47.810;13.022;2023-05-16T09:44:52;14.10;99.90
14397;DHT22;50653;47.810;13.022;2023-05-16T09:47:19;14.10;99.90
14397;DHT22;50653;47.810;13.022;2023-05-16T09:49:46;14.10;99.90
14397;DHT22;50653;47.810;13.022;2023-05-16T09:52:13;14.10;99.90
14397;DHT22;50653;47.810;13.022;2023-05-16T09:54:39;14.10;99.90
14397;DHT22;50653;47.810;13.022;2023-05-16T09:57:05;14.10;99.90
14397;DHT22;50653;47.810;13.022;2023-05-16T09:59:35;14.00;99.90
14397;DHT22;50653;47.810;13.022;2023-05-16T10:02:01;14.00;99.90
14397;DHT22;50653;47.810;13.022;2023-05-16T10:04:29;14.00;99.90
14397;DHT22;50653;47.810;13.022;2023-05-16T10:06:56;14.00;99.90
14397;DHT22;50653;47.810;13.022;2023-05-16T10:09:23;14.10;99.90
14397;DHT22;50653;47.810;13.022;2023-05-16T10:11:50;14.00;99.90
14397;DHT22;50653;47.810;13.022;2023-05-16T10:14:17;14.00;99.90
14397;DHT22;50653;47.810;13.022;2023-05-16T10:16:46;14.00;99.90
14397;DHT22;50653;47.810;13.022;2023-05-16T10:19:13;14.10;99.90
14397;DHT22;50653;47.810;13.022;2023-05-16T10:21:41;14.10;99.90
14397;DHT22;50653;47.810;13.022;2023-05-16T10:24:10;14.20;99.90
14397;DHT22;50653;47.810;13.022;2023-05-16T10:26:36;14.20;99.90
14397;DHT22;50653;47.810;13.022;2023-05-16T10:29:02;14.20;99.90
14397;DHT22;50653;47.810;13.022;2023-05-16T10:31:28;14.10;99.90
14397;DHT22;50653;47.810;13.022;2023-05-16T10:33:56;14.10;99.90
14397;DHT22;50653;47.810;13.022;2023-05-16T10:36:22;14.00;99.90
14397;DHT22;50653;47.810;13.022;2023-05-16T10:38:49;13.80;99.90
14397;DHT22;50653;47.810;13.022;2023-05-16T10:41:15;13.80;99.90
14397;DHT22;50653;47.810;13.022;2023-05-16T10:43:43;13.80;99.90
14397;DHT22;50653;47.810;13.022;2023-05-16T10:46:09;13.80;99.90
14397;DHT22;50653;47.810;13.022;2023-05-16T10:48:37;13.60;99.90
14397;DHT22;50653;47.810;13.022;2023-05-16T10:54:05;13.50;99.90
14397;DHT22;50653;47.810;13.022;2023-05-16T10:56:32;13.70;99.90
14397;DHT22;50653;47.810;13.022;2023-05-16T10:58:59;13.70;99.90
14397;DHT22;50653;47.810;13.022;2023-05-16T11:01:32;13.50;99.90
14397;DHT22;50653;47.810;13.022;2023-05-16T11:04:05;13.40;99.90
14397;DHT22;50653;47.810;13.022;2023-05-16T11:17:09;13.30;99.90
14397;DHT22;50653;47.810;13.022;2023-05-16T11:19:47;13.20;99.90
14397;DHT22;50653;47.810;13.022;2023-05-16T11:24:53;13.10;99.90
14397;DHT22;50653;47.810;13.022;2023-05-16T11:27:29;13.10;99.90
14397;DHT22;50653;47.810;13.022;2023-05-16T11:30:13;13.00;99.90
14397;DHT22;50653;47.810;13.022;2023-05-16T11:32:44;13.10;99.90
14397;DHT22;50653;47.810;13.022;2023-05-16T11:35:12;13.10;99.90
14397;DHT22;50653;47.810;13.022;2023-05-16T11:37:37;13.00;99.90
14397;DHT22;50653;47.810;13.022;2023-05-16T11:40:05;13.00;99.90
14397;DHT22;50653;47.810;13.022;2023-05-16T11:42:45;13.10;99.90
14397;DHT22;50653;47.810;13.022;2023-05-16T11:45:15;13.20;99.90
14397;DHT22;50653;47.810;13.022;2023-05-16T11:47:43;13.10;99.90
14397;DHT22;50653;47.810;13.022;2023-05-16T11:50:15;13.30;99.90
14397;DHT22;50653;47.810;13.022;2023-05-16T11:52:43;13.20;99.90
14397;DHT22;50653;47.810;13.022;2023-05-16T11:55:10;13.30;99.90
14397;DHT22;50653;47.810;13.022;2023-05-16T11:57:40;13.40;99.90
14397;DHT22;50653;47.810;13.022;2023-05-16T12:00:19;13.10;99.90
14397;DHT22;50653;47.810;13.022;2023-05-16T12:02:46;13.10;99.90
14397;DHT22;50653;47.810;13.022;2023-05-16T12:05:12;13.10;99.90
14397;DHT22;50653;47.810;13.022;2023-05-16T12:07:39;13.10;99.90
14397;DHT22;50653;47.810;13.022;2023-05-16T12:10:10;13.20;99.90
14397;DHT22;50653;47.810;13.022;2023-05-16T12:12:38;13.00;99.90
14397;DHT22;50653;47.810;13.022;2023-05-16T12:15:06;13.00;99.90
14397;DHT22;50653;47.810;13.022;2023-05-16T12:17:34;13.00;99.90
14397;DHT22;50653;47.810;13.022;2023-05-16T12:20:01;13.10;99.90
14397;DHT22;50653;47.810;13.022;2023-05-16T12:22:27;13.10;99.90
14397;DHT22;50653;47.810;13.022;2023-05-16T12:24:53;13.20;99.90
14397;DHT22;50653;47.810;13.022;2023-05-16T12:27:22;13.40;99.90
14397;DHT22;50653;47.810;13.022;2023-05-16T12:29:49;13.50;99.90
14397;DHT22;50653;47.810;13.022;2023-05-16T12:32:18;13.70;99.90
14397;DHT22;50653;47.810;13.022;2023-05-16T12:34:52;13.50;99.90
14397;DHT22;50653;47.810;13.022;2023-05-16T12:37:18;13.40;99.90
14397;DHT22;50653;47.810;13.022;2023-05-16T12:39:45;13.40;99.90
14397;DHT22;50653;47.810;13.022;2023-05-16T12:42:13;13.60;99.90
14397;DHT22;50653;47.810;13.022;2023-05-16T12:44:39;13.70;99.90
14397;DHT22;50653;47.810;13.022;2023-05-16T12:47:12;13.70;99.90
14397;DHT22;50653;47.810;13.022;2023-05-16T12:49:45;13.80;99.90
14397;DHT22;50653;47.810;13.022;2023-05-16T12:52:16;13.70;99.90
14397;DHT22;50653;47.810;13.022;2023-05-16T12:54:43;13.80;99.90
14397;DHT22;50653;47.810;13.022;2023-05-16T12:57:09;13.80;99.90
14397;DHT22;50653;47.810;13.022;2023-05-16T12:59:35;13.80;99.90
14397;DHT22;50653;47.810;13.022;2023-05-16T13:02:01;13.90;99.90
14397;DHT22;50653;47.810;13.022;2023-05-16T13:04:28;13.90;99.90
14397;DHT22;50653;47.810;13.022;2023-05-16T13:06:54;13.70;99.90
14397;DHT22;50653;47.810;13.022;2023-05-16T13:09:20;13.20;99.90
14397;DHT22;50653;47.810;13.022;2023-05-16T13:11:46;13.20;99.90
14397;DHT22;50653;47.810;13.022;2023-05-16T13:14:11;13.30;99.90
14397;DHT22;50653;47.810;13.022;2023-05-16T13:16:37;13.10;99.90
14397;DHT22;50653;47.810;13.022;2023-05-16T13:19:03;13.40;99.90
14397;DHT22;50653;47.810;13.022;2023-05-16T13:21:30;13.30;99.90
14397;DHT22;50653;47.810;13.022;2023-05-16T13:23:57;13.50;99.90
14397;DHT22;50653;47.810;13.022;2023-05-16T13:26:23;13.40;99.90
14397;DHT22;50653;47.810;13.022;2023-05-16T13:28:49;13.10;99.90
14397;DHT22;50653;47.810;13.022;2023-05-16T13:31:19;13.20;99.90
14397;DHT22;50653;47.810;13.022;2023-05-16T13:33:45;13.20;99.90
14397;DHT22;50653;47.810;13.022;2023-05-16T13:36:11;13.20;99.90
14397;DHT22;50653;47.810;13.022;2023-05-16T13:38:37;13.30;99.90
14397;DHT22;50653;47.810;13.022;2023-05-16T13:41:02;13.50;99.90
14397;DHT22;50653;47.810;13.022;2023-05-16T13:43:28;13.60;99.90
14397;DHT22;50653;47.810;13.022;2023-05-16T13:45:54;13.70;99.90
14397;DHT22;50653;47.810;13.022;2023-05-16T13:48:20;13.50;99.90
14397;DHT22;50653;47.810;13.022;2023-05-16T13:50:46;13.10;99.90
14397;DHT22;50653;47.810;13.022;2023-05-16T13:53:12;13.20;99.90
14397;DHT22;50653;47.810;13.022;2023-05-16T13:55:37;13.10;99.90
14397;DHT22;50653;47.810;13.022;2023-05-16T13:58:03;13.10;99.90
14397;DHT22;50653;47.810;13.022;2023-05-16T14:00:29;13.30;99.90
14397;DHT22;50653;47.810;13.022;2023-05-16T14:02:54;13.40;99.90
14397;DHT22;50653;47.810;13.022;2023-05-16T14:05:21;13.30;99.90
14397;DHT22;50653;47.810;13.022;2023-05-16T14:07:47;13.10;99.90
14397;DHT22;50653;47.810;13.022;2023-05-16T14:10:13;13.20;99.90
14397;DHT22;50653;47.810;13.022;2023-05-16T14:12:38;13.20;99.90
14397;DHT22;50653;47.810;13.022;2023-05-16T14:15:05;13.10;99.90
14397;DHT22;50653;47.810;13.022;2023-05-16T14:17:31;12.90;99.90
14397;DHT22;50653;47.810;13.022;2023-05-16T14:19:57;13.00;99.90
14397;DHT22;50653;47.810;13.022;2023-05-16T14:22:23;13.00;99.90
14397;DHT22;50653;47.810;13.022;2023-05-16T14:24:48;13.00;99.90
14397;DHT22;50653;47.810;13.022;2023-05-16T14:27:14;13.00;99.90
14397;DHT22;50653;47.810;13.022;2023-05-16T14:29:41;13.00;99.90
14397;DHT22;50653;47.810;13.022;2023-05-16T14:32:08;12.90;99.90
14397;DHT22;50653;47.810;13.022;2023-05-16T14:34:35;12.80;99.90
14397;DHT22;50653;47.810;13.022;2023-05-16T14:37:01;13.10;99.90
14397;DHT22;50653;47.810;13.022;2023-05-16T14:39:26;13.10;99.90
14397;DHT22;50653;47.810;13.022;2023-05-16T14:41:52;12.70;99.90
14397;DHT22;50653;47.810;13.022;2023-05-16T14:44:18;12.60;99.90
14397;DHT22;50653;47.810;13.022;2023-05-16T14:46:46;12.70;99.90
14397;DHT22;50653;47.810;13.022;2023-05-16T14:49:11;13.00;99.90
14397;DHT22;50653;47.810;13.022;2023-05-16T14:51:37;13.10;99.90
14397;DHT22;50653;47.810;13.022;2023-05-16T14:54:03;12.90;99.90
14397;DHT22;50653;47.810;13.022;2023-05-16T14:56:30;12.80;99.90
14397;DHT22;50653;47.810;13.022;2023-05-16T14:58:56;13.00;99.90
14397;DHT22;50653;47.810;13.022;2023-05-16T15:01:22;13.20;99.90
14397;DHT22;50653;47.810;13.022;2023-05-16T15:03:48;13.30;99.90
14397;DHT22;50653;47.810;13.022;2023-05-16T15:06:13;13.40;99.90
14397;DHT22;50653;47.810;13.022;2023-05-16T15:08:39;13.40;99.90
14397;DHT22;50653;47.810;13.022;2023-05-16T15:11:04;13.30;99.90
14397;DHT22;50653;47.810;13.022;2023-05-16T15:13:30;13.30;99.90
14397;DHT22;50653;47.810;13.022;2023-05-16T15:15:56;13.30;99.90
14397;DHT22;50653;47.810;13.022;2023-05-16T15:18:22;13.30;99.90
14397;DHT22;50653;47.810;13.022;2023-05-16T15:20:48;13.30;99.90
14397;DHT22;50653;47.810;13.022;2023-05-16T15:23:16;13.20;99.90
14397;DHT22;50653;47.810;13.022;2023-05-16T15:25:42;13.20;99.90
14397;DHT22;50653;47.810;13.022;2023-05-16T15:28:08;13.20;99.90
14397;DHT22;50653;47.810;13.022;2023-05-16T15:30:33;13.20;99.90
14397;DHT22;50653;47.810;13.022;2023-05-16T15:32:59;13.30;99.90
14397;DHT22;50653;47.810;13.022;2023-05-16T15:35:25;13.10;99.90
14397;DHT22;50653;47.810;13.022;2023-05-16T15:37:51;13.10;99.90